<?xml version="1.0" encoding="UTF-8" standalone="no" ?>
<gpx xmlns="http://www.topografix.com/GPX/1/1" xmlns:xsi="http://www.w3.org/2001/XMLSchema-instance" xsi:schemaLocation="http://www.topografix.com/GPX/1/1 http://www.topografix.com/GPX/1/1/gpx.xsd" version="1.1" creator="VisuGPX - https://www.visugpx.com">
  <metadata>
    <name>Belley / Chapelle de Poirin7</name>
    <desc><![CDATA[Ain - Bugey.
Boucle au départ de Belley.
Passage à Cublon, Billieu, Cuvillieu, La Rochette, Cressieu, Chapelle de Poirin, Voie Romaine, Poirin, Billieu, Penaye.]]></desc>
  </metadata>
  <trk>
    <name><![CDATA[14180510-Belley / Chapelle de Poirin7]]></name>
    <extensions>
      <line xmlns="http://www.topografix.com/GPX/gpx_style/0/2">
        <color>0000FF</color>
        <width>4</width>
      </line>
    </extensions>
    <trkseg>
      <trkpt lat="45.758" lon="5.68932">
        <ele>281</ele>
        <time>2022-01-26T21:19:21Z</time>
      </trkpt>
      <trkpt lat="45.75812" lon="5.68909">
        <ele>280</ele>
        <time>2022-01-26T21:19:26Z</time>
      </trkpt>
      <trkpt lat="45.75777" lon="5.68901">
        <ele>280</ele>
        <time>2022-01-26T21:19:34Z</time>
      </trkpt>
      <trkpt lat="45.7578" lon="5.68881">
        <ele>280</ele>
        <time>2022-01-26T21:19:37Z</time>
      </trkpt>
      <trkpt lat="45.75779" lon="5.68871">
        <ele>280</ele>
        <time>2022-01-26T21:19:39Z</time>
      </trkpt>
      <trkpt lat="45.75773" lon="5.68862">
        <ele>280</ele>
        <time>2022-01-26T21:19:41Z</time>
      </trkpt>
      <trkpt lat="45.75763" lon="5.68858">
        <ele>280</ele>
        <time>2022-01-26T21:19:43Z</time>
      </trkpt>
      <trkpt lat="45.75757" lon="5.68863">
        <ele>280</ele>
        <time>2022-01-26T21:19:45Z</time>
      </trkpt>
      <trkpt lat="45.75745" lon="5.68888">
        <ele>280</ele>
        <time>2022-01-26T21:19:50Z</time>
      </trkpt>
      <trkpt lat="45.75704" lon="5.68858">
        <ele>281</ele>
        <time>2022-01-26T21:20:01Z</time>
      </trkpt>
      <trkpt lat="45.75697" lon="5.68884">
        <ele>282</ele>
        <time>2022-01-26T21:20:05Z</time>
      </trkpt>
      <trkpt lat="45.7568" lon="5.68925">
        <ele>283</ele>
        <time>2022-01-26T21:20:13Z</time>
      </trkpt>
      <trkpt lat="45.75646" lon="5.69024">
        <ele>285</ele>
        <time>2022-01-26T21:20:31Z</time>
      </trkpt>
      <trkpt lat="45.75635" lon="5.69075">
        <ele>285</ele>
        <time>2022-01-26T21:20:40Z</time>
      </trkpt>
      <trkpt lat="45.75666" lon="5.69072">
        <ele>287</ele>
        <time>2022-01-26T21:20:47Z</time>
      </trkpt>
      <trkpt lat="45.75704" lon="5.69059">
        <ele>286</ele>
        <time>2022-01-26T21:20:56Z</time>
      </trkpt>
      <trkpt lat="45.7572" lon="5.6906">
        <ele>285</ele>
        <time>2022-01-26T21:21:00Z</time>
      </trkpt>
      <trkpt lat="45.75762" lon="5.69081">
        <ele>285</ele>
        <time>2022-01-26T21:21:10Z</time>
      </trkpt>
      <trkpt lat="45.75838" lon="5.69125">
        <ele>282</ele>
        <time>2022-01-26T21:21:29Z</time>
      </trkpt>
      <trkpt lat="45.75835" lon="5.69238">
        <ele>279</ele>
        <time>2022-01-26T21:21:48Z</time>
      </trkpt>
      <trkpt lat="45.7582" lon="5.69317">
        <ele>271</ele>
        <time>2022-01-26T21:22:01Z</time>
      </trkpt>
      <trkpt lat="45.75791" lon="5.69427">
        <ele>260</ele>
        <time>2022-01-26T21:22:20Z</time>
      </trkpt>
      <trkpt lat="45.75786" lon="5.69473">
        <ele>257</ele>
        <time>2022-01-26T21:22:28Z</time>
      </trkpt>
      <trkpt lat="45.75786" lon="5.69501">
        <ele>256</ele>
        <time>2022-01-26T21:22:32Z</time>
      </trkpt>
      <trkpt lat="45.75799" lon="5.69659">
        <ele>254</ele>
        <time>2022-01-26T21:22:58Z</time>
      </trkpt>
      <trkpt lat="45.75796" lon="5.69687">
        <ele>254</ele>
        <time>2022-01-26T21:23:03Z</time>
      </trkpt>
      <trkpt lat="45.75837" lon="5.69702">
        <ele>254</ele>
        <time>2022-01-26T21:23:13Z</time>
      </trkpt>
      <trkpt lat="45.75835" lon="5.69729">
        <ele>253</ele>
        <time>2022-01-26T21:23:17Z</time>
      </trkpt>
      <trkpt lat="45.75837" lon="5.69739">
        <ele>253</ele>
        <time>2022-01-26T21:23:19Z</time>
      </trkpt>
      <trkpt lat="45.75845" lon="5.69745">
        <ele>253</ele>
        <time>2022-01-26T21:23:21Z</time>
      </trkpt>
      <trkpt lat="45.75853" lon="5.69742">
        <ele>254</ele>
        <time>2022-01-26T21:23:23Z</time>
      </trkpt>
      <trkpt lat="45.7586" lon="5.69727">
        <ele>254</ele>
        <time>2022-01-26T21:23:26Z</time>
      </trkpt>
      <trkpt lat="45.75889" lon="5.69757">
        <ele>254</ele>
        <time>2022-01-26T21:23:34Z</time>
      </trkpt>
      <trkpt lat="45.75918" lon="5.6978">
        <ele>254</ele>
        <time>2022-01-26T21:23:42Z</time>
      </trkpt>
      <trkpt lat="45.76063" lon="5.69887">
        <ele>260</ele>
        <time>2022-01-26T21:24:20Z</time>
      </trkpt>
      <trkpt lat="45.76073" lon="5.69892">
        <ele>261</ele>
        <time>2022-01-26T21:24:23Z</time>
      </trkpt>
      <trkpt lat="45.76081" lon="5.69893">
        <ele>261</ele>
        <time>2022-01-26T21:24:24Z</time>
      </trkpt>
      <trkpt lat="45.76087" lon="5.69883">
        <ele>263</ele>
        <time>2022-01-26T21:24:27Z</time>
      </trkpt>
      <trkpt lat="45.76088" lon="5.69869">
        <ele>264</ele>
        <time>2022-01-26T21:24:29Z</time>
      </trkpt>
      <trkpt lat="45.76096" lon="5.69858">
        <ele>265</ele>
        <time>2022-01-26T21:24:31Z</time>
      </trkpt>
      <trkpt lat="45.76127" lon="5.69792">
        <ele>269</ele>
        <time>2022-01-26T21:24:44Z</time>
      </trkpt>
      <trkpt lat="45.76134" lon="5.69785">
        <ele>269</ele>
        <time>2022-01-26T21:24:46Z</time>
      </trkpt>
      <trkpt lat="45.76154" lon="5.69799">
        <ele>270</ele>
        <time>2022-01-26T21:24:52Z</time>
      </trkpt>
      <trkpt lat="45.76167" lon="5.69768">
        <ele>270</ele>
        <time>2022-01-26T21:24:58Z</time>
      </trkpt>
      <trkpt lat="45.76216" lon="5.69671">
        <ele>266</ele>
        <time>2022-01-26T21:25:17Z</time>
      </trkpt>
      <trkpt lat="45.76245" lon="5.69596">
        <ele>268</ele>
        <time>2022-01-26T21:25:31Z</time>
      </trkpt>
      <trkpt lat="45.76264" lon="5.6956">
        <ele>269</ele>
        <time>2022-01-26T21:25:38Z</time>
      </trkpt>
      <trkpt lat="45.76271" lon="5.69551">
        <ele>269</ele>
        <time>2022-01-26T21:25:41Z</time>
      </trkpt>
      <trkpt lat="45.76352" lon="5.69692">
        <ele>268</ele>
        <time>2022-01-26T21:26:10Z</time>
      </trkpt>
      <trkpt lat="45.76398" lon="5.69756">
        <ele>268</ele>
        <time>2022-01-26T21:26:25Z</time>
      </trkpt>
      <trkpt lat="45.76459" lon="5.69872">
        <ele>264</ele>
        <time>2022-01-26T21:26:49Z</time>
      </trkpt>
      <trkpt lat="45.76475" lon="5.69914">
        <ele>263</ele>
        <time>2022-01-26T21:26:57Z</time>
      </trkpt>
      <trkpt lat="45.76478" lon="5.6993">
        <ele>262</ele>
        <time>2022-01-26T21:26:59Z</time>
      </trkpt>
      <trkpt lat="45.76476" lon="5.69965">
        <ele>261</ele>
        <time>2022-01-26T21:27:05Z</time>
      </trkpt>
      <trkpt lat="45.76478" lon="5.69982">
        <ele>261</ele>
        <time>2022-01-26T21:27:08Z</time>
      </trkpt>
      <trkpt lat="45.76485" lon="5.69999">
        <ele>260</ele>
        <time>2022-01-26T21:27:11Z</time>
      </trkpt>
      <trkpt lat="45.7656" lon="5.70136">
        <ele>256</ele>
        <time>2022-01-26T21:27:40Z</time>
      </trkpt>
      <trkpt lat="45.76581" lon="5.70168">
        <ele>255</ele>
        <time>2022-01-26T21:27:47Z</time>
      </trkpt>
      <trkpt lat="45.76606" lon="5.70226">
        <ele>256</ele>
        <time>2022-01-26T21:27:58Z</time>
      </trkpt>
      <trkpt lat="45.76658" lon="5.70316">
        <ele>260</ele>
        <time>2022-01-26T21:28:17Z</time>
      </trkpt>
      <trkpt lat="45.76702" lon="5.70406">
        <ele>262</ele>
        <time>2022-01-26T21:28:35Z</time>
      </trkpt>
      <trkpt lat="45.76735" lon="5.70483">
        <ele>260</ele>
        <time>2022-01-26T21:28:49Z</time>
      </trkpt>
      <trkpt lat="45.76764" lon="5.70536">
        <ele>257</ele>
        <time>2022-01-26T21:29:00Z</time>
      </trkpt>
      <trkpt lat="45.76781" lon="5.70581">
        <ele>254</ele>
        <time>2022-01-26T21:29:09Z</time>
      </trkpt>
      <trkpt lat="45.7683" lon="5.70641">
        <ele>252</ele>
        <time>2022-01-26T21:29:24Z</time>
      </trkpt>
      <trkpt lat="45.76868" lon="5.70683">
        <ele>250</ele>
        <time>2022-01-26T21:29:35Z</time>
      </trkpt>
      <trkpt lat="45.76878" lon="5.70693">
        <ele>249</ele>
        <time>2022-01-26T21:29:38Z</time>
      </trkpt>
      <trkpt lat="45.76911" lon="5.70713">
        <ele>250</ele>
        <time>2022-01-26T21:29:46Z</time>
      </trkpt>
      <trkpt lat="45.76918" lon="5.70721">
        <ele>249</ele>
        <time>2022-01-26T21:29:48Z</time>
      </trkpt>
      <trkpt lat="45.76924" lon="5.70731">
        <ele>247</ele>
        <time>2022-01-26T21:29:51Z</time>
      </trkpt>
      <trkpt lat="45.76964" lon="5.70838">
        <ele>235</ele>
        <time>2022-01-26T21:30:10Z</time>
      </trkpt>
      <trkpt lat="45.76973" lon="5.70853">
        <ele>234</ele>
        <time>2022-01-26T21:30:14Z</time>
      </trkpt>
      <trkpt lat="45.77011" lon="5.70886">
        <ele>233</ele>
        <time>2022-01-26T21:30:24Z</time>
      </trkpt>
      <trkpt lat="45.77034" lon="5.70899">
        <ele>232</ele>
        <time>2022-01-26T21:30:30Z</time>
      </trkpt>
      <trkpt lat="45.77085" lon="5.70919">
        <ele>231</ele>
        <time>2022-01-26T21:30:42Z</time>
      </trkpt>
      <trkpt lat="45.77111" lon="5.70938">
        <ele>233</ele>
        <time>2022-01-26T21:30:49Z</time>
      </trkpt>
      <trkpt lat="45.7722" lon="5.71036">
        <ele>235</ele>
        <time>2022-01-26T21:31:19Z</time>
      </trkpt>
      <trkpt lat="45.77273" lon="5.71093">
        <ele>236</ele>
        <time>2022-01-26T21:31:34Z</time>
      </trkpt>
      <trkpt lat="45.77321" lon="5.71127">
        <ele>238</ele>
        <time>2022-01-26T21:31:47Z</time>
      </trkpt>
      <trkpt lat="45.77388" lon="5.71194">
        <ele>240</ele>
        <time>2022-01-26T21:32:06Z</time>
      </trkpt>
      <trkpt lat="45.77452" lon="5.71247">
        <ele>238</ele>
        <time>2022-01-26T21:32:23Z</time>
      </trkpt>
      <trkpt lat="45.77486" lon="5.71267">
        <ele>238</ele>
        <time>2022-01-26T21:32:32Z</time>
      </trkpt>
      <trkpt lat="45.77506" lon="5.71274">
        <ele>238</ele>
        <time>2022-01-26T21:32:37Z</time>
      </trkpt>
      <trkpt lat="45.77545" lon="5.71285">
        <ele>241</ele>
        <time>2022-01-26T21:32:46Z</time>
      </trkpt>
      <trkpt lat="45.7759" lon="5.71293">
        <ele>243</ele>
        <time>2022-01-26T21:32:56Z</time>
      </trkpt>
      <trkpt lat="45.77598" lon="5.713">
        <ele>242</ele>
        <time>2022-01-26T21:32:59Z</time>
      </trkpt>
      <trkpt lat="45.77598" lon="5.71313">
        <ele>239</ele>
        <time>2022-01-26T21:33:01Z</time>
      </trkpt>
      <trkpt lat="45.7761" lon="5.7132">
        <ele>237</ele>
        <time>2022-01-26T21:33:04Z</time>
      </trkpt>
      <trkpt lat="45.7762" lon="5.71353">
        <ele>233</ele>
        <time>2022-01-26T21:33:10Z</time>
      </trkpt>
      <trkpt lat="45.77655" lon="5.71361">
        <ele>233</ele>
        <time>2022-01-26T21:33:18Z</time>
      </trkpt>
      <trkpt lat="45.77679" lon="5.71363">
        <ele>234</ele>
        <time>2022-01-26T21:33:24Z</time>
      </trkpt>
      <trkpt lat="45.77697" lon="5.71361">
        <ele>234</ele>
        <time>2022-01-26T21:33:28Z</time>
      </trkpt>
      <trkpt lat="45.77713" lon="5.71355">
        <ele>235</ele>
        <time>2022-01-26T21:33:32Z</time>
      </trkpt>
      <trkpt lat="45.77746" lon="5.71336">
        <ele>234</ele>
        <time>2022-01-26T21:33:40Z</time>
      </trkpt>
      <trkpt lat="45.77772" lon="5.71339">
        <ele>235</ele>
        <time>2022-01-26T21:33:46Z</time>
      </trkpt>
      <trkpt lat="45.778" lon="5.7135">
        <ele>239</ele>
        <time>2022-01-26T21:33:53Z</time>
      </trkpt>
      <trkpt lat="45.77813" lon="5.7135">
        <ele>240</ele>
        <time>2022-01-26T21:33:56Z</time>
      </trkpt>
      <trkpt lat="45.77826" lon="5.71341">
        <ele>238</ele>
        <time>2022-01-26T21:33:59Z</time>
      </trkpt>
      <trkpt lat="45.77847" lon="5.71317">
        <ele>237</ele>
        <time>2022-01-26T21:34:05Z</time>
      </trkpt>
      <trkpt lat="45.77873" lon="5.71294">
        <ele>237</ele>
        <time>2022-01-26T21:34:13Z</time>
      </trkpt>
      <trkpt lat="45.77914" lon="5.7127">
        <ele>238</ele>
        <time>2022-01-26T21:34:23Z</time>
      </trkpt>
      <trkpt lat="45.77935" lon="5.71262">
        <ele>238</ele>
        <time>2022-01-26T21:34:28Z</time>
      </trkpt>
      <trkpt lat="45.77959" lon="5.71244">
        <ele>237</ele>
        <time>2022-01-26T21:34:34Z</time>
      </trkpt>
      <trkpt lat="45.78001" lon="5.71205">
        <ele>237</ele>
        <time>2022-01-26T21:34:46Z</time>
      </trkpt>
      <trkpt lat="45.78038" lon="5.71182">
        <ele>240</ele>
        <time>2022-01-26T21:34:55Z</time>
      </trkpt>
      <trkpt lat="45.78052" lon="5.7117">
        <ele>241</ele>
        <time>2022-01-26T21:34:59Z</time>
      </trkpt>
      <trkpt lat="45.78074" lon="5.71127">
        <ele>243</ele>
        <time>2022-01-26T21:35:08Z</time>
      </trkpt>
      <trkpt lat="45.78078" lon="5.71099">
        <ele>242</ele>
        <time>2022-01-26T21:35:13Z</time>
      </trkpt>
      <trkpt lat="45.78078" lon="5.71024">
        <ele>238</ele>
        <time>2022-01-26T21:35:25Z</time>
      </trkpt>
      <trkpt lat="45.7809" lon="5.70993">
        <ele>238</ele>
        <time>2022-01-26T21:35:31Z</time>
      </trkpt>
      <trkpt lat="45.78092" lon="5.70975">
        <ele>238</ele>
        <time>2022-01-26T21:35:34Z</time>
      </trkpt>
      <trkpt lat="45.78091" lon="5.70904">
        <ele>237</ele>
        <time>2022-01-26T21:35:45Z</time>
      </trkpt>
      <trkpt lat="45.78088" lon="5.70864">
        <ele>237</ele>
        <time>2022-01-26T21:35:52Z</time>
      </trkpt>
      <trkpt lat="45.78074" lon="5.70781">
        <ele>236</ele>
        <time>2022-01-26T21:36:06Z</time>
      </trkpt>
      <trkpt lat="45.78064" lon="5.70755">
        <ele>235</ele>
        <time>2022-01-26T21:36:10Z</time>
      </trkpt>
      <trkpt lat="45.78026" lon="5.70678">
        <ele>235</ele>
        <time>2022-01-26T21:36:26Z</time>
      </trkpt>
      <trkpt lat="45.78002" lon="5.70641">
        <ele>236</ele>
        <time>2022-01-26T21:36:34Z</time>
      </trkpt>
      <trkpt lat="45.77972" lon="5.70602">
        <ele>237</ele>
        <time>2022-01-26T21:36:43Z</time>
      </trkpt>
      <trkpt lat="45.77949" lon="5.70558">
        <ele>237</ele>
        <time>2022-01-26T21:36:52Z</time>
      </trkpt>
      <trkpt lat="45.77911" lon="5.70447">
        <ele>237</ele>
        <time>2022-01-26T21:37:13Z</time>
      </trkpt>
      <trkpt lat="45.77884" lon="5.70357">
        <ele>239</ele>
        <time>2022-01-26T21:37:29Z</time>
      </trkpt>
      <trkpt lat="45.77882" lon="5.70343">
        <ele>240</ele>
        <time>2022-01-26T21:37:31Z</time>
      </trkpt>
      <trkpt lat="45.77885" lon="5.70328">
        <ele>240</ele>
        <time>2022-01-26T21:37:33Z</time>
      </trkpt>
      <trkpt lat="45.77934" lon="5.70292">
        <ele>242</ele>
        <time>2022-01-26T21:37:46Z</time>
      </trkpt>
      <trkpt lat="45.77942" lon="5.70278">
        <ele>243</ele>
        <time>2022-01-26T21:37:49Z</time>
      </trkpt>
      <trkpt lat="45.77943" lon="5.70252">
        <ele>244</ele>
        <time>2022-01-26T21:37:53Z</time>
      </trkpt>
      <trkpt lat="45.77947" lon="5.70242">
        <ele>245</ele>
        <time>2022-01-26T21:37:55Z</time>
      </trkpt>
      <trkpt lat="45.77975" lon="5.70213">
        <ele>250</ele>
        <time>2022-01-26T21:38:03Z</time>
      </trkpt>
      <trkpt lat="45.7799" lon="5.70192">
        <ele>254</ele>
        <time>2022-01-26T21:38:08Z</time>
      </trkpt>
      <trkpt lat="45.77998" lon="5.7019">
        <ele>255</ele>
        <time>2022-01-26T21:38:10Z</time>
      </trkpt>
      <trkpt lat="45.78045" lon="5.70246">
        <ele>261</ele>
        <time>2022-01-26T21:38:24Z</time>
      </trkpt>
      <trkpt lat="45.78081" lon="5.70284">
        <ele>265</ele>
        <time>2022-01-26T21:38:35Z</time>
      </trkpt>
      <trkpt lat="45.78128" lon="5.70318">
        <ele>272</ele>
        <time>2022-01-26T21:38:47Z</time>
      </trkpt>
      <trkpt lat="45.78153" lon="5.70342">
        <ele>274</ele>
        <time>2022-01-26T21:38:54Z</time>
      </trkpt>
      <trkpt lat="45.78175" lon="5.70382">
        <ele>274</ele>
        <time>2022-01-26T21:39:02Z</time>
      </trkpt>
      <trkpt lat="45.78183" lon="5.70392">
        <ele>274</ele>
        <time>2022-01-26T21:39:05Z</time>
      </trkpt>
      <trkpt lat="45.78216" lon="5.70407">
        <ele>276</ele>
        <time>2022-01-26T21:39:13Z</time>
      </trkpt>
      <trkpt lat="45.78226" lon="5.70406">
        <ele>278</ele>
        <time>2022-01-26T21:39:15Z</time>
      </trkpt>
      <trkpt lat="45.78241" lon="5.704">
        <ele>281</ele>
        <time>2022-01-26T21:39:19Z</time>
      </trkpt>
      <trkpt lat="45.78247" lon="5.70392">
        <ele>283</ele>
        <time>2022-01-26T21:39:21Z</time>
      </trkpt>
      <trkpt lat="45.78271" lon="5.70375">
        <ele>290</ele>
        <time>2022-01-26T21:39:27Z</time>
      </trkpt>
      <trkpt lat="45.78283" lon="5.70372">
        <ele>292</ele>
        <time>2022-01-26T21:39:30Z</time>
      </trkpt>
      <trkpt lat="45.78303" lon="5.7038">
        <ele>294</ele>
        <time>2022-01-26T21:39:35Z</time>
      </trkpt>
      <trkpt lat="45.78308" lon="5.70389">
        <ele>293</ele>
        <time>2022-01-26T21:39:37Z</time>
      </trkpt>
      <trkpt lat="45.78335" lon="5.70489">
        <ele>292</ele>
        <time>2022-01-26T21:39:54Z</time>
      </trkpt>
      <trkpt lat="45.7835" lon="5.70534">
        <ele>294</ele>
        <time>2022-01-26T21:40:02Z</time>
      </trkpt>
      <trkpt lat="45.78357" lon="5.70546">
        <ele>295</ele>
        <time>2022-01-26T21:40:05Z</time>
      </trkpt>
      <trkpt lat="45.78369" lon="5.70554">
        <ele>296</ele>
        <time>2022-01-26T21:40:08Z</time>
      </trkpt>
      <trkpt lat="45.78388" lon="5.70558">
        <ele>297</ele>
        <time>2022-01-26T21:40:12Z</time>
      </trkpt>
      <trkpt lat="45.78458" lon="5.70564">
        <ele>300</ele>
        <time>2022-01-26T21:40:29Z</time>
      </trkpt>
      <trkpt lat="45.78487" lon="5.70569">
        <ele>300</ele>
        <time>2022-01-26T21:40:36Z</time>
      </trkpt>
      <trkpt lat="45.78543" lon="5.70573">
        <ele>302</ele>
        <time>2022-01-26T21:40:49Z</time>
      </trkpt>
      <trkpt lat="45.78702" lon="5.70593">
        <ele>298</ele>
        <time>2022-01-26T21:41:26Z</time>
      </trkpt>
      <trkpt lat="45.78727" lon="5.70599">
        <ele>298</ele>
        <time>2022-01-26T21:41:32Z</time>
      </trkpt>
      <trkpt lat="45.78818" lon="5.70608">
        <ele>300</ele>
        <time>2022-01-26T21:41:53Z</time>
      </trkpt>
      <trkpt lat="45.78821" lon="5.70596">
        <ele>300</ele>
        <time>2022-01-26T21:41:55Z</time>
      </trkpt>
      <trkpt lat="45.78865" lon="5.70506">
        <ele>302</ele>
        <time>2022-01-26T21:42:13Z</time>
      </trkpt>
      <trkpt lat="45.78893" lon="5.70466">
        <ele>303</ele>
        <time>2022-01-26T21:42:22Z</time>
      </trkpt>
      <trkpt lat="45.78939" lon="5.70417">
        <ele>304</ele>
        <time>2022-01-26T21:42:36Z</time>
      </trkpt>
      <trkpt lat="45.78971" lon="5.70359">
        <ele>305</ele>
        <time>2022-01-26T21:42:48Z</time>
      </trkpt>
      <trkpt lat="45.79008" lon="5.70311">
        <ele>305</ele>
        <time>2022-01-26T21:43:00Z</time>
      </trkpt>
      <trkpt lat="45.79007" lon="5.70298">
        <ele>306</ele>
        <time>2022-01-26T21:43:02Z</time>
      </trkpt>
      <trkpt lat="45.79019" lon="5.70224">
        <ele>308</ele>
        <time>2022-01-26T21:43:14Z</time>
      </trkpt>
      <trkpt lat="45.79019" lon="5.70026">
        <ele>312</ele>
        <time>2022-01-26T21:43:46Z</time>
      </trkpt>
      <trkpt lat="45.79024" lon="5.69944">
        <ele>313</ele>
        <time>2022-01-26T21:44:00Z</time>
      </trkpt>
      <trkpt lat="45.79019" lon="5.69882">
        <ele>315</ele>
        <time>2022-01-26T21:44:10Z</time>
      </trkpt>
      <trkpt lat="45.79004" lon="5.69829">
        <ele>318</ele>
        <time>2022-01-26T21:44:19Z</time>
      </trkpt>
      <trkpt lat="45.7899" lon="5.69742">
        <ele>318</ele>
        <time>2022-01-26T21:44:34Z</time>
      </trkpt>
      <trkpt lat="45.7898" lon="5.6971">
        <ele>318</ele>
        <time>2022-01-26T21:44:39Z</time>
      </trkpt>
      <trkpt lat="45.78905" lon="5.69597">
        <ele>312</ele>
        <time>2022-01-26T21:45:05Z</time>
      </trkpt>
      <trkpt lat="45.78885" lon="5.69571">
        <ele>312</ele>
        <time>2022-01-26T21:45:11Z</time>
      </trkpt>
      <trkpt lat="45.78886" lon="5.6956">
        <ele>311</ele>
        <time>2022-01-26T21:45:13Z</time>
      </trkpt>
      <trkpt lat="45.78893" lon="5.69546">
        <ele>311</ele>
        <time>2022-01-26T21:45:16Z</time>
      </trkpt>
      <trkpt lat="45.78928" lon="5.69501">
        <ele>310</ele>
        <time>2022-01-26T21:45:27Z</time>
      </trkpt>
      <trkpt lat="45.78932" lon="5.69485">
        <ele>310</ele>
        <time>2022-01-26T21:45:29Z</time>
      </trkpt>
      <trkpt lat="45.78928" lon="5.69441">
        <ele>309</ele>
        <time>2022-01-26T21:45:37Z</time>
      </trkpt>
      <trkpt lat="45.78903" lon="5.69353">
        <ele>308</ele>
        <time>2022-01-26T21:45:52Z</time>
      </trkpt>
      <trkpt lat="45.78902" lon="5.6934">
        <ele>308</ele>
        <time>2022-01-26T21:45:54Z</time>
      </trkpt>
      <trkpt lat="45.78905" lon="5.69328">
        <ele>307</ele>
        <time>2022-01-26T21:45:56Z</time>
      </trkpt>
      <trkpt lat="45.78981" lon="5.69211">
        <ele>307</ele>
        <time>2022-01-26T21:46:22Z</time>
      </trkpt>
      <trkpt lat="45.79017" lon="5.69237">
        <ele>308</ele>
        <time>2022-01-26T21:46:32Z</time>
      </trkpt>
      <trkpt lat="45.79046" lon="5.6924">
        <ele>310</ele>
        <time>2022-01-26T21:46:39Z</time>
      </trkpt>
      <trkpt lat="45.79081" lon="5.6923">
        <ele>313</ele>
        <time>2022-01-26T21:46:47Z</time>
      </trkpt>
      <trkpt lat="45.79093" lon="5.69223">
        <ele>313</ele>
        <time>2022-01-26T21:46:50Z</time>
      </trkpt>
      <trkpt lat="45.7914" lon="5.69185">
        <ele>314</ele>
        <time>2022-01-26T21:47:03Z</time>
      </trkpt>
      <trkpt lat="45.79155" lon="5.69178">
        <ele>314</ele>
        <time>2022-01-26T21:47:06Z</time>
      </trkpt>
      <trkpt lat="45.79223" lon="5.69158">
        <ele>314</ele>
        <time>2022-01-26T21:47:22Z</time>
      </trkpt>
      <trkpt lat="45.79274" lon="5.69125">
        <ele>315</ele>
        <time>2022-01-26T21:47:36Z</time>
      </trkpt>
      <trkpt lat="45.79288" lon="5.6911">
        <ele>315</ele>
        <time>2022-01-26T21:47:40Z</time>
      </trkpt>
      <trkpt lat="45.7933" lon="5.69045">
        <ele>314</ele>
        <time>2022-01-26T21:47:54Z</time>
      </trkpt>
      <trkpt lat="45.79354" lon="5.69034">
        <ele>313</ele>
        <time>2022-01-26T21:48:00Z</time>
      </trkpt>
      <trkpt lat="45.79372" lon="5.69028">
        <ele>312</ele>
        <time>2022-01-26T21:48:04Z</time>
      </trkpt>
      <trkpt lat="45.79406" lon="5.69028">
        <ele>312</ele>
        <time>2022-01-26T21:48:12Z</time>
      </trkpt>
      <trkpt lat="45.79419" lon="5.69032">
        <ele>312</ele>
        <time>2022-01-26T21:48:15Z</time>
      </trkpt>
      <trkpt lat="45.79461" lon="5.69055">
        <ele>311</ele>
        <time>2022-01-26T21:48:26Z</time>
      </trkpt>
      <trkpt lat="45.7951" lon="5.69101">
        <ele>310</ele>
        <time>2022-01-26T21:48:39Z</time>
      </trkpt>
      <trkpt lat="45.7951" lon="5.69021">
        <ele>302</ele>
        <time>2022-01-26T21:48:53Z</time>
      </trkpt>
      <trkpt lat="45.79514" lon="5.68996">
        <ele>300</ele>
        <time>2022-01-26T21:48:57Z</time>
      </trkpt>
      <trkpt lat="45.79522" lon="5.68982">
        <ele>299</ele>
        <time>2022-01-26T21:49:00Z</time>
      </trkpt>
      <trkpt lat="45.79527" lon="5.68979">
        <ele>299</ele>
        <time>2022-01-26T21:49:01Z</time>
      </trkpt>
      <trkpt lat="45.79536" lon="5.68978">
        <ele>299</ele>
        <time>2022-01-26T21:49:03Z</time>
      </trkpt>
      <trkpt lat="45.79557" lon="5.68982">
        <ele>299</ele>
        <time>2022-01-26T21:49:08Z</time>
      </trkpt>
      <trkpt lat="45.79564" lon="5.6898">
        <ele>299</ele>
        <time>2022-01-26T21:49:10Z</time>
      </trkpt>
      <trkpt lat="45.7957" lon="5.6897">
        <ele>298</ele>
        <time>2022-01-26T21:49:12Z</time>
      </trkpt>
      <trkpt lat="45.7959" lon="5.68882">
        <ele>297</ele>
        <time>2022-01-26T21:49:27Z</time>
      </trkpt>
      <trkpt lat="45.79609" lon="5.68836">
        <ele>298</ele>
        <time>2022-01-26T21:49:36Z</time>
      </trkpt>
      <trkpt lat="45.79624" lon="5.68789">
        <ele>300</ele>
        <time>2022-01-26T21:49:44Z</time>
      </trkpt>
      <trkpt lat="45.79622" lon="5.68779">
        <ele>300</ele>
        <time>2022-01-26T21:49:46Z</time>
      </trkpt>
      <trkpt lat="45.79584" lon="5.68687">
        <ele>295</ele>
        <time>2022-01-26T21:50:03Z</time>
      </trkpt>
      <trkpt lat="45.79571" lon="5.68663">
        <ele>294</ele>
        <time>2022-01-26T21:50:08Z</time>
      </trkpt>
      <trkpt lat="45.79563" lon="5.68654">
        <ele>294</ele>
        <time>2022-01-26T21:50:10Z</time>
      </trkpt>
      <trkpt lat="45.79563" lon="5.68647">
        <ele>294</ele>
        <time>2022-01-26T21:50:12Z</time>
      </trkpt>
      <trkpt lat="45.79569" lon="5.68643">
        <ele>294</ele>
        <time>2022-01-26T21:50:13Z</time>
      </trkpt>
      <trkpt lat="45.79605" lon="5.68648">
        <ele>294</ele>
        <time>2022-01-26T21:50:22Z</time>
      </trkpt>
      <trkpt lat="45.79613" lon="5.68653">
        <ele>294</ele>
        <time>2022-01-26T21:50:24Z</time>
      </trkpt>
      <trkpt lat="45.79633" lon="5.68704">
        <ele>297</ele>
        <time>2022-01-26T21:50:33Z</time>
      </trkpt>
      <trkpt lat="45.7965" lon="5.68738">
        <ele>301</ele>
        <time>2022-01-26T21:50:40Z</time>
      </trkpt>
      <trkpt lat="45.79683" lon="5.68791">
        <ele>304</ele>
        <time>2022-01-26T21:50:51Z</time>
      </trkpt>
      <trkpt lat="45.79697" lon="5.68809">
        <ele>304</ele>
        <time>2022-01-26T21:50:56Z</time>
      </trkpt>
      <trkpt lat="45.79717" lon="5.68827">
        <ele>305</ele>
        <time>2022-01-26T21:51:01Z</time>
      </trkpt>
      <trkpt lat="45.7972" lon="5.68836">
        <ele>306</ele>
        <time>2022-01-26T21:51:03Z</time>
      </trkpt>
      <trkpt lat="45.7972" lon="5.68853">
        <ele>306</ele>
        <time>2022-01-26T21:51:06Z</time>
      </trkpt>
      <trkpt lat="45.79725" lon="5.68862">
        <ele>307</ele>
        <time>2022-01-26T21:51:08Z</time>
      </trkpt>
      <trkpt lat="45.79753" lon="5.68885">
        <ele>308</ele>
        <time>2022-01-26T21:51:15Z</time>
      </trkpt>
      <trkpt lat="45.7987" lon="5.68965">
        <ele>307</ele>
        <time>2022-01-26T21:51:45Z</time>
      </trkpt>
      <trkpt lat="45.79881" lon="5.68969">
        <ele>306</ele>
        <time>2022-01-26T21:51:48Z</time>
      </trkpt>
      <trkpt lat="45.79909" lon="5.68967">
        <ele>304</ele>
        <time>2022-01-26T21:51:55Z</time>
      </trkpt>
      <trkpt lat="45.79916" lon="5.68972">
        <ele>304</ele>
        <time>2022-01-26T21:51:56Z</time>
      </trkpt>
      <trkpt lat="45.79927" lon="5.69011">
        <ele>304</ele>
        <time>2022-01-26T21:52:03Z</time>
      </trkpt>
      <trkpt lat="45.79929" lon="5.69036">
        <ele>304</ele>
        <time>2022-01-26T21:52:07Z</time>
      </trkpt>
      <trkpt lat="45.79939" lon="5.6907">
        <ele>302</ele>
        <time>2022-01-26T21:52:13Z</time>
      </trkpt>
      <trkpt lat="45.79949" lon="5.69097">
        <ele>300</ele>
        <time>2022-01-26T21:52:18Z</time>
      </trkpt>
      <trkpt lat="45.79962" lon="5.69122">
        <ele>297</ele>
        <time>2022-01-26T21:52:23Z</time>
      </trkpt>
      <trkpt lat="45.79965" lon="5.69136">
        <ele>297</ele>
        <time>2022-01-26T21:52:26Z</time>
      </trkpt>
      <trkpt lat="45.79964" lon="5.69151">
        <ele>296</ele>
        <time>2022-01-26T21:52:28Z</time>
      </trkpt>
      <trkpt lat="45.79956" lon="5.69165">
        <ele>296</ele>
        <time>2022-01-26T21:52:31Z</time>
      </trkpt>
      <trkpt lat="45.79957" lon="5.69207">
        <ele>295</ele>
        <time>2022-01-26T21:52:38Z</time>
      </trkpt>
      <trkpt lat="45.79965" lon="5.69255">
        <ele>294</ele>
        <time>2022-01-26T21:52:46Z</time>
      </trkpt>
      <trkpt lat="45.79991" lon="5.69289">
        <ele>294</ele>
        <time>2022-01-26T21:52:54Z</time>
      </trkpt>
      <trkpt lat="45.80017" lon="5.69318">
        <ele>293</ele>
        <time>2022-01-26T21:53:02Z</time>
      </trkpt>
      <trkpt lat="45.80052" lon="5.69323">
        <ele>293</ele>
        <time>2022-01-26T21:53:10Z</time>
      </trkpt>
      <trkpt lat="45.80084" lon="5.69319">
        <ele>292</ele>
        <time>2022-01-26T21:53:18Z</time>
      </trkpt>
      <trkpt lat="45.80104" lon="5.69303">
        <ele>292</ele>
        <time>2022-01-26T21:53:23Z</time>
      </trkpt>
      <trkpt lat="45.80127" lon="5.69272">
        <ele>292</ele>
        <time>2022-01-26T21:53:30Z</time>
      </trkpt>
      <trkpt lat="45.80135" lon="5.69266">
        <ele>292</ele>
        <time>2022-01-26T21:53:33Z</time>
      </trkpt>
      <trkpt lat="45.80172" lon="5.69278">
        <ele>293</ele>
        <time>2022-01-26T21:53:41Z</time>
      </trkpt>
      <trkpt lat="45.80179" lon="5.69273">
        <ele>293</ele>
        <time>2022-01-26T21:53:43Z</time>
      </trkpt>
      <trkpt lat="45.80181" lon="5.69263">
        <ele>294</ele>
        <time>2022-01-26T21:53:45Z</time>
      </trkpt>
      <trkpt lat="45.80179" lon="5.69234">
        <ele>293</ele>
        <time>2022-01-26T21:53:50Z</time>
      </trkpt>
      <trkpt lat="45.8016" lon="5.69043">
        <ele>290</ele>
        <time>2022-01-26T21:54:21Z</time>
      </trkpt>
      <trkpt lat="45.80161" lon="5.69025">
        <ele>289</ele>
        <time>2022-01-26T21:54:24Z</time>
      </trkpt>
      <trkpt lat="45.80172" lon="5.69023">
        <ele>289</ele>
        <time>2022-01-26T21:54:27Z</time>
      </trkpt>
      <trkpt lat="45.80309" lon="5.68975">
        <ele>293</ele>
        <time>2022-01-26T21:55:00Z</time>
      </trkpt>
      <trkpt lat="45.80459" lon="5.68917">
        <ele>296</ele>
        <time>2022-01-26T21:55:36Z</time>
      </trkpt>
      <trkpt lat="45.80506" lon="5.68906">
        <ele>298</ele>
        <time>2022-01-26T21:55:47Z</time>
      </trkpt>
      <trkpt lat="45.80529" lon="5.68908">
        <ele>298</ele>
        <time>2022-01-26T21:55:52Z</time>
      </trkpt>
      <trkpt lat="45.80715" lon="5.68944">
        <ele>304</ele>
        <time>2022-01-26T21:56:36Z</time>
      </trkpt>
      <trkpt lat="45.80728" lon="5.68949">
        <ele>305</ele>
        <time>2022-01-26T21:56:39Z</time>
      </trkpt>
      <trkpt lat="45.80769" lon="5.68981">
        <ele>305</ele>
        <time>2022-01-26T21:56:50Z</time>
      </trkpt>
      <trkpt lat="45.80781" lon="5.68987">
        <ele>305</ele>
        <time>2022-01-26T21:56:53Z</time>
      </trkpt>
      <trkpt lat="45.8082" lon="5.68991">
        <ele>305</ele>
        <time>2022-01-26T21:57:02Z</time>
      </trkpt>
      <trkpt lat="45.80872" lon="5.69011">
        <ele>308</ele>
        <time>2022-01-26T21:57:15Z</time>
      </trkpt>
      <trkpt lat="45.80886" lon="5.69019">
        <ele>308</ele>
        <time>2022-01-26T21:57:18Z</time>
      </trkpt>
      <trkpt lat="45.80898" lon="5.69032">
        <ele>309</ele>
        <time>2022-01-26T21:57:22Z</time>
      </trkpt>
      <trkpt lat="45.80921" lon="5.69075">
        <ele>310</ele>
        <time>2022-01-26T21:57:31Z</time>
      </trkpt>
      <trkpt lat="45.80931" lon="5.69086">
        <ele>311</ele>
        <time>2022-01-26T21:57:34Z</time>
      </trkpt>
      <trkpt lat="45.80944" lon="5.69084">
        <ele>313</ele>
        <time>2022-01-26T21:57:37Z</time>
      </trkpt>
      <trkpt lat="45.8096" lon="5.69105">
        <ele>317</ele>
        <time>2022-01-26T21:57:42Z</time>
      </trkpt>
      <trkpt lat="45.81088" lon="5.69187">
        <ele>320</ele>
        <time>2022-01-26T21:58:15Z</time>
      </trkpt>
      <trkpt lat="45.81101" lon="5.69197">
        <ele>321</ele>
        <time>2022-01-26T21:58:18Z</time>
      </trkpt>
      <trkpt lat="45.81118" lon="5.69215">
        <ele>322</ele>
        <time>2022-01-26T21:58:23Z</time>
      </trkpt>
      <trkpt lat="45.81177" lon="5.69291">
        <ele>324</ele>
        <time>2022-01-26T21:58:41Z</time>
      </trkpt>
      <trkpt lat="45.8119" lon="5.69312">
        <ele>326</ele>
        <time>2022-01-26T21:58:46Z</time>
      </trkpt>
      <trkpt lat="45.81264" lon="5.69475">
        <ele>333</ele>
        <time>2022-01-26T21:59:18Z</time>
      </trkpt>
      <trkpt lat="45.81274" lon="5.695">
        <ele>336</ele>
        <time>2022-01-26T21:59:22Z</time>
      </trkpt>
      <trkpt lat="45.81278" lon="5.69518">
        <ele>337</ele>
        <time>2022-01-26T21:59:25Z</time>
      </trkpt>
      <trkpt lat="45.81304" lon="5.69658">
        <ele>335</ele>
        <time>2022-01-26T21:59:49Z</time>
      </trkpt>
      <trkpt lat="45.81306" lon="5.69686">
        <ele>334</ele>
        <time>2022-01-26T21:59:54Z</time>
      </trkpt>
      <trkpt lat="45.81305" lon="5.69753">
        <ele>331</ele>
        <time>2022-01-26T22:00:05Z</time>
      </trkpt>
      <trkpt lat="45.81302" lon="5.69782">
        <ele>330</ele>
        <time>2022-01-26T22:00:09Z</time>
      </trkpt>
      <trkpt lat="45.81289" lon="5.69853">
        <ele>328</ele>
        <time>2022-01-26T22:00:21Z</time>
      </trkpt>
      <trkpt lat="45.81289" lon="5.69879">
        <ele>327</ele>
        <time>2022-01-26T22:00:25Z</time>
      </trkpt>
      <trkpt lat="45.81291" lon="5.69913">
        <ele>327</ele>
        <time>2022-01-26T22:00:31Z</time>
      </trkpt>
      <trkpt lat="45.81296" lon="5.69945">
        <ele>327</ele>
        <time>2022-01-26T22:00:36Z</time>
      </trkpt>
      <trkpt lat="45.81303" lon="5.69974">
        <ele>327</ele>
        <time>2022-01-26T22:00:41Z</time>
      </trkpt>
      <trkpt lat="45.81312" lon="5.69997">
        <ele>327</ele>
        <time>2022-01-26T22:00:46Z</time>
      </trkpt>
      <trkpt lat="45.81324" lon="5.70011">
        <ele>329</ele>
        <time>2022-01-26T22:00:49Z</time>
      </trkpt>
      <trkpt lat="45.81341" lon="5.70024">
        <ele>332</ele>
        <time>2022-01-26T22:00:54Z</time>
      </trkpt>
      <trkpt lat="45.81361" lon="5.70031">
        <ele>333</ele>
        <time>2022-01-26T22:00:59Z</time>
      </trkpt>
      <trkpt lat="45.81383" lon="5.70034">
        <ele>334</ele>
        <time>2022-01-26T22:01:04Z</time>
      </trkpt>
      <trkpt lat="45.81402" lon="5.70033">
        <ele>334</ele>
        <time>2022-01-26T22:01:08Z</time>
      </trkpt>
      <trkpt lat="45.81427" lon="5.70026">
        <ele>334</ele>
        <time>2022-01-26T22:01:14Z</time>
      </trkpt>
      <trkpt lat="45.81495" lon="5.69971">
        <ele>335</ele>
        <time>2022-01-26T22:01:32Z</time>
      </trkpt>
      <trkpt lat="45.81529" lon="5.69947">
        <ele>334</ele>
        <time>2022-01-26T22:01:41Z</time>
      </trkpt>
      <trkpt lat="45.81546" lon="5.69937">
        <ele>334</ele>
        <time>2022-01-26T22:01:46Z</time>
      </trkpt>
      <trkpt lat="45.81562" lon="5.69935">
        <ele>333</ele>
        <time>2022-01-26T22:01:49Z</time>
      </trkpt>
      <trkpt lat="45.81589" lon="5.69945">
        <ele>332</ele>
        <time>2022-01-26T22:01:56Z</time>
      </trkpt>
      <trkpt lat="45.816" lon="5.69971">
        <ele>332</ele>
        <time>2022-01-26T22:02:01Z</time>
      </trkpt>
      <trkpt lat="45.81601" lon="5.69988">
        <ele>333</ele>
        <time>2022-01-26T22:02:03Z</time>
      </trkpt>
      <trkpt lat="45.81591" lon="5.70033">
        <ele>334</ele>
        <time>2022-01-26T22:02:11Z</time>
      </trkpt>
      <trkpt lat="45.81584" lon="5.70046">
        <ele>335</ele>
        <time>2022-01-26T22:02:14Z</time>
      </trkpt>
      <trkpt lat="45.81569" lon="5.70064">
        <ele>335</ele>
        <time>2022-01-26T22:02:18Z</time>
      </trkpt>
      <trkpt lat="45.81508" lon="5.7012">
        <ele>341</ele>
        <time>2022-01-26T22:02:35Z</time>
      </trkpt>
      <trkpt lat="45.81487" lon="5.70136">
        <ele>342</ele>
        <time>2022-01-26T22:02:41Z</time>
      </trkpt>
      <trkpt lat="45.8148" lon="5.70145">
        <ele>343</ele>
        <time>2022-01-26T22:02:43Z</time>
      </trkpt>
      <trkpt lat="45.81466" lon="5.70194">
        <ele>345</ele>
        <time>2022-01-26T22:02:52Z</time>
      </trkpt>
      <trkpt lat="45.81459" lon="5.70209">
        <ele>346</ele>
        <time>2022-01-26T22:02:55Z</time>
      </trkpt>
      <trkpt lat="45.8145" lon="5.70216">
        <ele>346</ele>
        <time>2022-01-26T22:02:57Z</time>
      </trkpt>
      <trkpt lat="45.81419" lon="5.70221">
        <ele>346</ele>
        <time>2022-01-26T22:03:04Z</time>
      </trkpt>
      <trkpt lat="45.81388" lon="5.70238">
        <ele>347</ele>
        <time>2022-01-26T22:03:12Z</time>
      </trkpt>
      <trkpt lat="45.81382" lon="5.70248">
        <ele>348</ele>
        <time>2022-01-26T22:03:14Z</time>
      </trkpt>
      <trkpt lat="45.81378" lon="5.70266">
        <ele>350</ele>
        <time>2022-01-26T22:03:17Z</time>
      </trkpt>
      <trkpt lat="45.81371" lon="5.70277">
        <ele>351</ele>
        <time>2022-01-26T22:03:20Z</time>
      </trkpt>
      <trkpt lat="45.81284" lon="5.70329">
        <ele>357</ele>
        <time>2022-01-26T22:03:42Z</time>
      </trkpt>
      <trkpt lat="45.81256" lon="5.70362">
        <ele>362</ele>
        <time>2022-01-26T22:03:50Z</time>
      </trkpt>
      <trkpt lat="45.81211" lon="5.70379">
        <ele>363</ele>
        <time>2022-01-26T22:04:01Z</time>
      </trkpt>
      <trkpt lat="45.81161" lon="5.70413">
        <ele>364</ele>
        <time>2022-01-26T22:04:14Z</time>
      </trkpt>
      <trkpt lat="45.81153" lon="5.70415">
        <ele>364</ele>
        <time>2022-01-26T22:04:16Z</time>
      </trkpt>
      <trkpt lat="45.81136" lon="5.70481">
        <ele>366</ele>
        <time>2022-01-26T22:04:27Z</time>
      </trkpt>
      <trkpt lat="45.8114" lon="5.70514">
        <ele>367</ele>
        <time>2022-01-26T22:04:33Z</time>
      </trkpt>
      <trkpt lat="45.81139" lon="5.70541">
        <ele>368</ele>
        <time>2022-01-26T22:04:37Z</time>
      </trkpt>
      <trkpt lat="45.81109" lon="5.70619">
        <ele>367</ele>
        <time>2022-01-26T22:04:52Z</time>
      </trkpt>
      <trkpt lat="45.81107" lon="5.70634">
        <ele>367</ele>
        <time>2022-01-26T22:04:54Z</time>
      </trkpt>
      <trkpt lat="45.81084" lon="5.70681">
        <ele>366</ele>
        <time>2022-01-26T22:05:04Z</time>
      </trkpt>
      <trkpt lat="45.81071" lon="5.70701">
        <ele>365</ele>
        <time>2022-01-26T22:05:08Z</time>
      </trkpt>
      <trkpt lat="45.81048" lon="5.70727">
        <ele>364</ele>
        <time>2022-01-26T22:05:15Z</time>
      </trkpt>
      <trkpt lat="45.81032" lon="5.70739">
        <ele>363</ele>
        <time>2022-01-26T22:05:19Z</time>
      </trkpt>
      <trkpt lat="45.81024" lon="5.70751">
        <ele>363</ele>
        <time>2022-01-26T22:05:22Z</time>
      </trkpt>
      <trkpt lat="45.8102" lon="5.70773">
        <ele>363</ele>
        <time>2022-01-26T22:05:25Z</time>
      </trkpt>
      <trkpt lat="45.81044" lon="5.70798">
        <ele>365</ele>
        <time>2022-01-26T22:05:32Z</time>
      </trkpt>
      <trkpt lat="45.8105" lon="5.70811">
        <ele>365</ele>
        <time>2022-01-26T22:05:35Z</time>
      </trkpt>
      <trkpt lat="45.81061" lon="5.70803">
        <ele>366</ele>
        <time>2022-01-26T22:05:38Z</time>
      </trkpt>
      <trkpt lat="45.81075" lon="5.70787">
        <ele>367</ele>
        <time>2022-01-26T22:05:42Z</time>
      </trkpt>
      <trkpt lat="45.8111" lon="5.70725">
        <ele>370</ele>
        <time>2022-01-26T22:05:55Z</time>
      </trkpt>
      <trkpt lat="45.81123" lon="5.70716">
        <ele>372</ele>
        <time>2022-01-26T22:05:58Z</time>
      </trkpt>
      <trkpt lat="45.8111" lon="5.70725">
        <ele>370</ele>
        <time>2022-01-26T22:06:02Z</time>
      </trkpt>
      <trkpt lat="45.81075" lon="5.70787">
        <ele>367</ele>
        <time>2022-01-26T22:06:15Z</time>
      </trkpt>
      <trkpt lat="45.81061" lon="5.70803">
        <ele>366</ele>
        <time>2022-01-26T22:06:19Z</time>
      </trkpt>
      <trkpt lat="45.81049" lon="5.70811">
        <ele>365</ele>
        <time>2022-01-26T22:06:22Z</time>
      </trkpt>
      <trkpt lat="45.81049" lon="5.7084">
        <ele>365</ele>
        <time>2022-01-26T22:06:27Z</time>
      </trkpt>
      <trkpt lat="45.81042" lon="5.70851">
        <ele>365</ele>
        <time>2022-01-26T22:06:29Z</time>
      </trkpt>
      <trkpt lat="45.81008" lon="5.70872">
        <ele>365</ele>
        <time>2022-01-26T22:06:38Z</time>
      </trkpt>
      <trkpt lat="45.81001" lon="5.70882">
        <ele>364</ele>
        <time>2022-01-26T22:06:40Z</time>
      </trkpt>
      <trkpt lat="45.80973" lon="5.70889">
        <ele>364</ele>
        <time>2022-01-26T22:06:47Z</time>
      </trkpt>
      <trkpt lat="45.80966" lon="5.70895">
        <ele>364</ele>
        <time>2022-01-26T22:06:49Z</time>
      </trkpt>
      <trkpt lat="45.80964" lon="5.70908">
        <ele>364</ele>
        <time>2022-01-26T22:06:51Z</time>
      </trkpt>
      <trkpt lat="45.8097" lon="5.70939">
        <ele>366</ele>
        <time>2022-01-26T22:06:56Z</time>
      </trkpt>
      <trkpt lat="45.80971" lon="5.7096">
        <ele>369</ele>
        <time>2022-01-26T22:06:59Z</time>
      </trkpt>
      <trkpt lat="45.80849" lon="5.70973">
        <ele>366</ele>
        <time>2022-01-26T22:07:28Z</time>
      </trkpt>
      <trkpt lat="45.80817" lon="5.7098">
        <ele>365</ele>
        <time>2022-01-26T22:07:36Z</time>
      </trkpt>
      <trkpt lat="45.80778" lon="5.70983">
        <ele>364</ele>
        <time>2022-01-26T22:07:45Z</time>
      </trkpt>
      <trkpt lat="45.80682" lon="5.70996">
        <ele>357</ele>
        <time>2022-01-26T22:08:07Z</time>
      </trkpt>
      <trkpt lat="45.80293" lon="5.71037">
        <ele>354</ele>
        <time>2022-01-26T22:09:38Z</time>
      </trkpt>
      <trkpt lat="45.80109" lon="5.71063">
        <ele>349</ele>
        <time>2022-01-26T22:10:21Z</time>
      </trkpt>
      <trkpt lat="45.80042" lon="5.71069">
        <ele>349</ele>
        <time>2022-01-26T22:10:37Z</time>
      </trkpt>
      <trkpt lat="45.8004" lon="5.71079">
        <ele>350</ele>
        <time>2022-01-26T22:10:39Z</time>
      </trkpt>
      <trkpt lat="45.80022" lon="5.71099">
        <ele>352</ele>
        <time>2022-01-26T22:10:44Z</time>
      </trkpt>
      <trkpt lat="45.80016" lon="5.71113">
        <ele>353</ele>
        <time>2022-01-26T22:10:47Z</time>
      </trkpt>
      <trkpt lat="45.8001" lon="5.71158">
        <ele>357</ele>
        <time>2022-01-26T22:10:54Z</time>
      </trkpt>
      <trkpt lat="45.80001" lon="5.71177">
        <ele>360</ele>
        <time>2022-01-26T22:10:58Z</time>
      </trkpt>
      <trkpt lat="45.79974" lon="5.71205">
        <ele>361</ele>
        <time>2022-01-26T22:11:06Z</time>
      </trkpt>
      <trkpt lat="45.79894" lon="5.71278">
        <ele>366</ele>
        <time>2022-01-26T22:11:28Z</time>
      </trkpt>
      <trkpt lat="45.79835" lon="5.71351">
        <ele>369</ele>
        <time>2022-01-26T22:11:46Z</time>
      </trkpt>
      <trkpt lat="45.79819" lon="5.71375">
        <ele>369</ele>
        <time>2022-01-26T22:11:52Z</time>
      </trkpt>
      <trkpt lat="45.79813" lon="5.71371">
        <ele>368</ele>
        <time>2022-01-26T22:11:53Z</time>
      </trkpt>
      <trkpt lat="45.79811" lon="5.71361">
        <ele>368</ele>
        <time>2022-01-26T22:11:55Z</time>
      </trkpt>
      <trkpt lat="45.79819" lon="5.71343">
        <ele>368</ele>
        <time>2022-01-26T22:11:58Z</time>
      </trkpt>
      <trkpt lat="45.79814" lon="5.71337">
        <ele>368</ele>
        <time>2022-01-26T22:12:00Z</time>
      </trkpt>
      <trkpt lat="45.79803" lon="5.71341">
        <ele>367</ele>
        <time>2022-01-26T22:12:02Z</time>
      </trkpt>
      <trkpt lat="45.7976" lon="5.71367">
        <ele>366</ele>
        <time>2022-01-26T22:12:13Z</time>
      </trkpt>
      <trkpt lat="45.79731" lon="5.71395">
        <ele>364</ele>
        <time>2022-01-26T22:12:21Z</time>
      </trkpt>
      <trkpt lat="45.79682" lon="5.71463">
        <ele>358</ele>
        <time>2022-01-26T22:12:37Z</time>
      </trkpt>
      <trkpt lat="45.79673" lon="5.71466">
        <ele>357</ele>
        <time>2022-01-26T22:12:40Z</time>
      </trkpt>
      <trkpt lat="45.79653" lon="5.71439">
        <ele>353</ele>
        <time>2022-01-26T22:12:46Z</time>
      </trkpt>
      <trkpt lat="45.79603" lon="5.71383">
        <ele>341</ele>
        <time>2022-01-26T22:13:01Z</time>
      </trkpt>
      <trkpt lat="45.79587" lon="5.71408">
        <ele>339</ele>
        <time>2022-01-26T22:13:06Z</time>
      </trkpt>
      <trkpt lat="45.79556" lon="5.71471">
        <ele>341</ele>
        <time>2022-01-26T22:13:19Z</time>
      </trkpt>
      <trkpt lat="45.79542" lon="5.71515">
        <ele>341</ele>
        <time>2022-01-26T22:13:27Z</time>
      </trkpt>
      <trkpt lat="45.79507" lon="5.71691">
        <ele>344</ele>
        <time>2022-01-26T22:13:57Z</time>
      </trkpt>
      <trkpt lat="45.79487" lon="5.71632">
        <ele>341</ele>
        <time>2022-01-26T22:14:07Z</time>
      </trkpt>
      <trkpt lat="45.79472" lon="5.71599">
        <ele>340</ele>
        <time>2022-01-26T22:14:14Z</time>
      </trkpt>
      <trkpt lat="45.79435" lon="5.71536">
        <ele>339</ele>
        <time>2022-01-26T22:14:27Z</time>
      </trkpt>
      <trkpt lat="45.79403" lon="5.715">
        <ele>339</ele>
        <time>2022-01-26T22:14:37Z</time>
      </trkpt>
      <trkpt lat="45.79378" lon="5.7148">
        <ele>338</ele>
        <time>2022-01-26T22:14:43Z</time>
      </trkpt>
      <trkpt lat="45.79291" lon="5.71437">
        <ele>335</ele>
        <time>2022-01-26T22:15:05Z</time>
      </trkpt>
      <trkpt lat="45.79272" lon="5.71422">
        <ele>334</ele>
        <time>2022-01-26T22:15:10Z</time>
      </trkpt>
      <trkpt lat="45.79219" lon="5.71369">
        <ele>339</ele>
        <time>2022-01-26T22:15:25Z</time>
      </trkpt>
      <trkpt lat="45.79206" lon="5.7136">
        <ele>341</ele>
        <time>2022-01-26T22:15:28Z</time>
      </trkpt>
      <trkpt lat="45.79193" lon="5.71355">
        <ele>343</ele>
        <time>2022-01-26T22:15:31Z</time>
      </trkpt>
      <trkpt lat="45.79161" lon="5.7135">
        <ele>346</ele>
        <time>2022-01-26T22:15:39Z</time>
      </trkpt>
      <trkpt lat="45.79145" lon="5.71344">
        <ele>348</ele>
        <time>2022-01-26T22:15:43Z</time>
      </trkpt>
      <trkpt lat="45.79122" lon="5.71323">
        <ele>351</ele>
        <time>2022-01-26T22:15:49Z</time>
      </trkpt>
      <trkpt lat="45.79035" lon="5.71202">
        <ele>361</ele>
        <time>2022-01-26T22:16:17Z</time>
      </trkpt>
      <trkpt lat="45.79029" lon="5.7119">
        <ele>361</ele>
        <time>2022-01-26T22:16:20Z</time>
      </trkpt>
      <trkpt lat="45.79026" lon="5.71174">
        <ele>360</ele>
        <time>2022-01-26T22:16:23Z</time>
      </trkpt>
      <trkpt lat="45.79026" lon="5.71059">
        <ele>357</ele>
        <time>2022-01-26T22:16:41Z</time>
      </trkpt>
      <trkpt lat="45.79022" lon="5.71035">
        <ele>355</ele>
        <time>2022-01-26T22:16:45Z</time>
      </trkpt>
      <trkpt lat="45.79006" lon="5.70978">
        <ele>351</ele>
        <time>2022-01-26T22:16:55Z</time>
      </trkpt>
      <trkpt lat="45.78979" lon="5.70918">
        <ele>343</ele>
        <time>2022-01-26T22:17:07Z</time>
      </trkpt>
      <trkpt lat="45.78974" lon="5.70896">
        <ele>340</ele>
        <time>2022-01-26T22:17:11Z</time>
      </trkpt>
      <trkpt lat="45.78968" lon="5.70843">
        <ele>336</ele>
        <time>2022-01-26T22:17:19Z</time>
      </trkpt>
      <trkpt lat="45.78971" lon="5.70806">
        <ele>334</ele>
        <time>2022-01-26T22:17:25Z</time>
      </trkpt>
      <trkpt lat="45.78978" lon="5.70783">
        <ele>334</ele>
        <time>2022-01-26T22:17:30Z</time>
      </trkpt>
      <trkpt lat="45.78987" lon="5.70766">
        <ele>335</ele>
        <time>2022-01-26T22:17:33Z</time>
      </trkpt>
      <trkpt lat="45.79047" lon="5.70687">
        <ele>337</ele>
        <time>2022-01-26T22:17:52Z</time>
      </trkpt>
      <trkpt lat="45.7908" lon="5.70634">
        <ele>337</ele>
        <time>2022-01-26T22:18:04Z</time>
      </trkpt>
      <trkpt lat="45.79094" lon="5.70567">
        <ele>330</ele>
        <time>2022-01-26T22:18:15Z</time>
      </trkpt>
      <trkpt lat="45.79101" lon="5.70553">
        <ele>330</ele>
        <time>2022-01-26T22:18:18Z</time>
      </trkpt>
      <trkpt lat="45.79118" lon="5.70533">
        <ele>331</ele>
        <time>2022-01-26T22:18:23Z</time>
      </trkpt>
      <trkpt lat="45.79161" lon="5.70472">
        <ele>332</ele>
        <time>2022-01-26T22:18:37Z</time>
      </trkpt>
      <trkpt lat="45.79173" lon="5.7046">
        <ele>332</ele>
        <time>2022-01-26T22:18:41Z</time>
      </trkpt>
      <trkpt lat="45.79177" lon="5.70448">
        <ele>330</ele>
        <time>2022-01-26T22:18:43Z</time>
      </trkpt>
      <trkpt lat="45.79177" lon="5.70434">
        <ele>327</ele>
        <time>2022-01-26T22:18:45Z</time>
      </trkpt>
      <trkpt lat="45.79171" lon="5.70427">
        <ele>324</ele>
        <time>2022-01-26T22:18:47Z</time>
      </trkpt>
      <trkpt lat="45.79162" lon="5.70425">
        <ele>322</ele>
        <time>2022-01-26T22:18:49Z</time>
      </trkpt>
      <trkpt lat="45.79155" lon="5.7043">
        <ele>322</ele>
        <time>2022-01-26T22:18:51Z</time>
      </trkpt>
      <trkpt lat="45.79139" lon="5.70453">
        <ele>323</ele>
        <time>2022-01-26T22:18:56Z</time>
      </trkpt>
      <trkpt lat="45.79026" lon="5.70574">
        <ele>315</ele>
        <time>2022-01-26T22:19:29Z</time>
      </trkpt>
      <trkpt lat="45.78945" lon="5.70621">
        <ele>308</ele>
        <time>2022-01-26T22:19:49Z</time>
      </trkpt>
      <trkpt lat="45.78927" lon="5.70621">
        <ele>306</ele>
        <time>2022-01-26T22:19:54Z</time>
      </trkpt>
      <trkpt lat="45.78898" lon="5.70615">
        <ele>304</ele>
        <time>2022-01-26T22:20:00Z</time>
      </trkpt>
      <trkpt lat="45.78865" lon="5.70614">
        <ele>302</ele>
        <time>2022-01-26T22:20:08Z</time>
      </trkpt>
      <trkpt lat="45.78728" lon="5.70599">
        <ele>298</ele>
        <time>2022-01-26T22:20:40Z</time>
      </trkpt>
      <trkpt lat="45.78702" lon="5.70593">
        <ele>298</ele>
        <time>2022-01-26T22:20:46Z</time>
      </trkpt>
      <trkpt lat="45.78543" lon="5.70573">
        <ele>302</ele>
        <time>2022-01-26T22:21:24Z</time>
      </trkpt>
      <trkpt lat="45.78487" lon="5.70569">
        <ele>300</ele>
        <time>2022-01-26T22:21:37Z</time>
      </trkpt>
      <trkpt lat="45.78369" lon="5.70554">
        <ele>296</ele>
        <time>2022-01-26T22:22:04Z</time>
      </trkpt>
      <trkpt lat="45.78357" lon="5.70546">
        <ele>295</ele>
        <time>2022-01-26T22:22:07Z</time>
      </trkpt>
      <trkpt lat="45.7835" lon="5.70535">
        <ele>294</ele>
        <time>2022-01-26T22:22:10Z</time>
      </trkpt>
      <trkpt lat="45.78335" lon="5.70489">
        <ele>292</ele>
        <time>2022-01-26T22:22:18Z</time>
      </trkpt>
      <trkpt lat="45.78308" lon="5.70389">
        <ele>293</ele>
        <time>2022-01-26T22:22:36Z</time>
      </trkpt>
      <trkpt lat="45.78303" lon="5.7038">
        <ele>294</ele>
        <time>2022-01-26T22:22:37Z</time>
      </trkpt>
      <trkpt lat="45.78283" lon="5.70372">
        <ele>292</ele>
        <time>2022-01-26T22:22:42Z</time>
      </trkpt>
      <trkpt lat="45.7827" lon="5.70374">
        <ele>290</ele>
        <time>2022-01-26T22:22:45Z</time>
      </trkpt>
      <trkpt lat="45.78241" lon="5.704">
        <ele>281</ele>
        <time>2022-01-26T22:22:53Z</time>
      </trkpt>
      <trkpt lat="45.78226" lon="5.70407">
        <ele>278</ele>
        <time>2022-01-26T22:22:57Z</time>
      </trkpt>
      <trkpt lat="45.78216" lon="5.70406">
        <ele>277</ele>
        <time>2022-01-26T22:22:59Z</time>
      </trkpt>
      <trkpt lat="45.78183" lon="5.70392">
        <ele>274</ele>
        <time>2022-01-26T22:23:07Z</time>
      </trkpt>
      <trkpt lat="45.78174" lon="5.70382">
        <ele>274</ele>
        <time>2022-01-26T22:23:10Z</time>
      </trkpt>
      <trkpt lat="45.78166" lon="5.70361">
        <ele>275</ele>
        <time>2022-01-26T22:23:14Z</time>
      </trkpt>
      <trkpt lat="45.78153" lon="5.70341">
        <ele>274</ele>
        <time>2022-01-26T22:23:18Z</time>
      </trkpt>
      <trkpt lat="45.78105" lon="5.703">
        <ele>269</ele>
        <time>2022-01-26T22:23:32Z</time>
      </trkpt>
      <trkpt lat="45.78081" lon="5.70283">
        <ele>265</ele>
        <time>2022-01-26T22:23:38Z</time>
      </trkpt>
      <trkpt lat="45.78045" lon="5.70246">
        <ele>261</ele>
        <time>2022-01-26T22:23:48Z</time>
      </trkpt>
      <trkpt lat="45.77998" lon="5.7019">
        <ele>255</ele>
        <time>2022-01-26T22:24:02Z</time>
      </trkpt>
      <trkpt lat="45.77988" lon="5.70188">
        <ele>254</ele>
        <time>2022-01-26T22:24:05Z</time>
      </trkpt>
      <trkpt lat="45.77949" lon="5.70144">
        <ele>251</ele>
        <time>2022-01-26T22:24:16Z</time>
      </trkpt>
      <trkpt lat="45.77873" lon="5.70066">
        <ele>245</ele>
        <time>2022-01-26T22:24:38Z</time>
      </trkpt>
      <trkpt lat="45.77591" lon="5.69784">
        <ele>237</ele>
        <time>2022-01-26T22:25:58Z</time>
      </trkpt>
      <trkpt lat="45.77575" lon="5.69762">
        <ele>237</ele>
        <time>2022-01-26T22:26:04Z</time>
      </trkpt>
      <trkpt lat="45.77535" lon="5.69697">
        <ele>236</ele>
        <time>2022-01-26T22:26:18Z</time>
      </trkpt>
      <trkpt lat="45.77504" lon="5.69732">
        <ele>237</ele>
        <time>2022-01-26T22:26:27Z</time>
      </trkpt>
      <trkpt lat="45.77494" lon="5.69736">
        <ele>237</ele>
        <time>2022-01-26T22:26:29Z</time>
      </trkpt>
      <trkpt lat="45.77458" lon="5.69729">
        <ele>240</ele>
        <time>2022-01-26T22:26:38Z</time>
      </trkpt>
      <trkpt lat="45.7744" lon="5.69721">
        <ele>241</ele>
        <time>2022-01-26T22:26:42Z</time>
      </trkpt>
      <trkpt lat="45.77415" lon="5.69704">
        <ele>242</ele>
        <time>2022-01-26T22:26:49Z</time>
      </trkpt>
      <trkpt lat="45.77394" lon="5.69686">
        <ele>244</ele>
        <time>2022-01-26T22:26:54Z</time>
      </trkpt>
      <trkpt lat="45.77314" lon="5.69607">
        <ele>253</ele>
        <time>2022-01-26T22:27:17Z</time>
      </trkpt>
      <trkpt lat="45.77292" lon="5.69583">
        <ele>256</ele>
        <time>2022-01-26T22:27:24Z</time>
      </trkpt>
      <trkpt lat="45.77274" lon="5.69559">
        <ele>258</ele>
        <time>2022-01-26T22:27:29Z</time>
      </trkpt>
      <trkpt lat="45.77201" lon="5.69446">
        <ele>269</ele>
        <time>2022-01-26T22:27:54Z</time>
      </trkpt>
      <trkpt lat="45.77176" lon="5.69366">
        <ele>270</ele>
        <time>2022-01-26T22:28:09Z</time>
      </trkpt>
      <trkpt lat="45.77154" lon="5.69331">
        <ele>271</ele>
        <time>2022-01-26T22:28:16Z</time>
      </trkpt>
      <trkpt lat="45.77132" lon="5.69307">
        <ele>274</ele>
        <time>2022-01-26T22:28:23Z</time>
      </trkpt>
      <trkpt lat="45.77122" lon="5.69281">
        <ele>276</ele>
        <time>2022-01-26T22:28:28Z</time>
      </trkpt>
      <trkpt lat="45.77046" lon="5.69306">
        <ele>284</ele>
        <time>2022-01-26T22:28:46Z</time>
      </trkpt>
      <trkpt lat="45.77005" lon="5.69316">
        <ele>284</ele>
        <time>2022-01-26T22:28:56Z</time>
      </trkpt>
      <trkpt lat="45.7699" lon="5.69318">
        <ele>283</ele>
        <time>2022-01-26T22:28:59Z</time>
      </trkpt>
      <trkpt lat="45.76962" lon="5.69312">
        <ele>283</ele>
        <time>2022-01-26T22:29:06Z</time>
      </trkpt>
      <trkpt lat="45.76791" lon="5.69207">
        <ele>280</ele>
        <time>2022-01-26T22:29:49Z</time>
      </trkpt>
      <trkpt lat="45.76714" lon="5.69155">
        <ele>279</ele>
        <time>2022-01-26T22:30:09Z</time>
      </trkpt>
      <trkpt lat="45.76698" lon="5.69197">
        <ele>276</ele>
        <time>2022-01-26T22:30:17Z</time>
      </trkpt>
      <trkpt lat="45.76692" lon="5.69204">
        <ele>275</ele>
        <time>2022-01-26T22:30:19Z</time>
      </trkpt>
      <trkpt lat="45.76682" lon="5.69208">
        <ele>275</ele>
        <time>2022-01-26T22:30:21Z</time>
      </trkpt>
      <trkpt lat="45.76671" lon="5.69208">
        <ele>275</ele>
        <time>2022-01-26T22:30:24Z</time>
      </trkpt>
      <trkpt lat="45.76653" lon="5.69201">
        <ele>274</ele>
        <time>2022-01-26T22:30:28Z</time>
      </trkpt>
      <trkpt lat="45.76515" lon="5.69129">
        <ele>271</ele>
        <time>2022-01-26T22:31:02Z</time>
      </trkpt>
      <trkpt lat="45.76465" lon="5.69108">
        <ele>270</ele>
        <time>2022-01-26T22:31:14Z</time>
      </trkpt>
      <trkpt lat="45.76438" lon="5.691">
        <ele>269</ele>
        <time>2022-01-26T22:31:21Z</time>
      </trkpt>
      <trkpt lat="45.76411" lon="5.69098">
        <ele>269</ele>
        <time>2022-01-26T22:31:27Z</time>
      </trkpt>
      <trkpt lat="45.76399" lon="5.69101">
        <ele>269</ele>
        <time>2022-01-26T22:31:30Z</time>
      </trkpt>
      <trkpt lat="45.76325" lon="5.69142">
        <ele>269</ele>
        <time>2022-01-26T22:31:49Z</time>
      </trkpt>
      <trkpt lat="45.76287" lon="5.6916">
        <ele>266</ele>
        <time>2022-01-26T22:31:58Z</time>
      </trkpt>
      <trkpt lat="45.76203" lon="5.69195">
        <ele>265</ele>
        <time>2022-01-26T22:32:18Z</time>
      </trkpt>
      <trkpt lat="45.76139" lon="5.69226">
        <ele>266</ele>
        <time>2022-01-26T22:32:34Z</time>
      </trkpt>
      <trkpt lat="45.76114" lon="5.69244">
        <ele>266</ele>
        <time>2022-01-26T22:32:41Z</time>
      </trkpt>
      <trkpt lat="45.7605" lon="5.692">
        <ele>270</ele>
        <time>2022-01-26T22:32:57Z</time>
      </trkpt>
      <trkpt lat="45.76008" lon="5.69155">
        <ele>271</ele>
        <time>2022-01-26T22:33:09Z</time>
      </trkpt>
      <trkpt lat="45.7594" lon="5.69092">
        <ele>275</ele>
        <time>2022-01-26T22:33:28Z</time>
      </trkpt>
      <trkpt lat="45.75939" lon="5.69062">
        <ele>275</ele>
        <time>2022-01-26T22:33:33Z</time>
      </trkpt>
      <trkpt lat="45.75942" lon="5.69039">
        <ele>275</ele>
        <time>2022-01-26T22:33:37Z</time>
      </trkpt>
      <trkpt lat="45.75937" lon="5.69028">
        <ele>276</ele>
        <time>2022-01-26T22:33:39Z</time>
      </trkpt>
      <trkpt lat="45.75888" lon="5.68967">
        <ele>278</ele>
        <time>2022-01-26T22:33:54Z</time>
      </trkpt>
      <trkpt lat="45.75885" lon="5.68952">
        <ele>279</ele>
        <time>2022-01-26T22:33:57Z</time>
      </trkpt>
      <trkpt lat="45.75865" lon="5.68904">
        <ele>280</ele>
        <time>2022-01-26T22:34:06Z</time>
      </trkpt>
      <trkpt lat="45.75857" lon="5.68888">
        <ele>280</ele>
        <time>2022-01-26T22:34:09Z</time>
      </trkpt>
      <trkpt lat="45.75843" lon="5.68869">
        <ele>280</ele>
        <time>2022-01-26T22:34:14Z</time>
      </trkpt>
      <trkpt lat="45.75836" lon="5.68863">
        <ele>280</ele>
        <time>2022-01-26T22:34:16Z</time>
      </trkpt>
      <trkpt lat="45.75828" lon="5.68873">
        <ele>280</ele>
        <time>2022-01-26T22:34:18Z</time>
      </trkpt>
      <trkpt lat="45.758" lon="5.68932">
        <ele>281</ele>
        <time>2022-01-26T22:34:30Z</time>
      </trkpt>
    </trkseg>
  </trk>
</gpx>